Comodoro Rivadavia, Argentina
Current Conditions -  °F | °C
As of 12:00 PM on Wednesday 22 Oct 2014 (Local Time) from SAVC Reporting Station
Scattered Clouds Scattered Clouds  
Wind Chill: 66°   Ceiling: Unl
Heat Index: 66°   Visibility: 6mi
Dew Point: 30°   Wind: 18mph
Humidity: 26%   Direction: 270°W
Pressure: 29.83"   Gusts: 33mph
Location:  45.86°S, 67.49°W
Report Text: SAVC 221500Z 27016G29KT 9999 SCT03019/M01 Q1010
Loading
Personal Weather Stations






























Interactive Weather Map
Tropical Storm Tracking
New forecast layout! Learn more

10-Day Weather Forecast

Advertisements
Track Severe Weather on mobile